Hrossey — VSTY6 — position and weather

sailwx.info

Track history (hours):
 
Tides and Currents Weather Stations Pressure Air Temp Water Temp Dewpoint Dewpoint Depression Visibility Wind Speed Wind Dir Waves Ship Positions

Hrossey

Operator: NorthLink Orkey & Shetland Ferries Ltd

Last reported at 2017-Feb-21 19:33 UTC. Time now 2017-Feb-22 04:25 UTC.
Position N 57°39' W 001°39'.

Length 125 m; draft 5.4 m.

Type: Passenger vessel. MMSI: 235448000.

Date/timePositionNaut miles runAvg speedWind from/ knotsBaromVisibWave heightAir tempDewpointWater temp
2017-Feb-21 19:33N 57°39' W 001°39'2422.0
2017-Feb-21 18:28N 57°16' W 001°53'1010.8
2017-Feb-21 17:33N 57°09' W 002°05'0 0.0
2017-Feb-21 16:33N 57°09' W 002°05'0 0.0
2017-Feb-21 15:33N 57°09' W 002°05'0 0.0
2017-Feb-21 14:33N 57°09' W 002°05'0 0.0
2017-Feb-21 13:33N 57°09' W 002°05'0 0.0
2017-Feb-21 12:33N 57°09' W 002°05'0 0.0
2017-Feb-21 11:33N 57°09' W 002°05'0 0.0
2017-Feb-21 10:33N 57°09' W 002°05'0 0.0
2017-Feb-21 09:33N 57°09' W 002°05'0 0.0
2017-Feb-21 08:33N 57°09' W 002°05'0 0.0
2017-Feb-21 07:33N 57°09' W 002°05'1 0.7
2017-Feb-21 06:33N 57°08' W 002°04'1612.4
2017-Feb-21 05:16N 57°21' W 001°45'912.8
2017-Feb-21 04:33N 57°29' W 001°37'100 3.7
2017-Feb-20 01:12N 59°05' W 002°27'812.6
2017-Feb-20 00:33N 59°00' W 002°39'1010.0
2017-Feb-19 23:33N 58°60' W 002°58'4 4.4
2017-Feb-19 22:33N 59°00' W 002°50'7822.1
2017-Feb-19 19:03N 57°50' W 001°48'1122.3
2017-Feb-19 18:33N 57°39' W 001°43'2121.1
2017-Feb-19 17:33N 57°18' W 001°50'1312.8
2017-Feb-19 16:33N 57°09' W 002°05'0 0.0
2017-Feb-19 15:33N 57°09' W 002°05'0 0.0
2017-Feb-19 14:33N 57°09' W 002°05'0 0.0
2017-Feb-19 13:33N 57°09' W 002°05'0 0.0
2017-Feb-19 12:33N 57°09' W 002°05'0 0.0
2017-Feb-19 11:33N 57°09' W 002°05'0 0.0
2017-Feb-19 10:33N 57°09' W 002°05'0 0.0
2017-Feb-19 09:33N 57°09' W 002°05'0 0.0
2017-Feb-19 08:33N 57°09' W 002°05'0 0.0
2017-Feb-19 07:33N 57°09' W 002°05'14 6.9
2017-Feb-19 05:33N 57°19' W 001°49'1414.0
2017-Feb-19 04:33N 57°32' W 001°39'14 0.4
2017-Feb-17 21:20N 57°46' W 001°38'1316.2
2017-Feb-17 20:33N 57°33' W 001°38'2118.3
2017-Feb-17 19:26N 57°14' W 001°54'8 9.5
2017-Feb-17 18:34N 57°09' W 002°05'0 0.0
2017-Feb-17 17:33N 57°09' W 002°05'0 0.0
2017-Feb-17 16:33N 57°09' W 002°05'0 0.0
2017-Feb-17 15:33N 57°09' W 002°05'0 0.0
2017-Feb-17 14:33N 57°09' W 002°05'0 0.0
2017-Feb-17 13:33N 57°09' W 002°05'0 0.0
2017-Feb-17 12:33N 57°09' W 002°05'0 0.0
2017-Feb-17 11:33N 57°09' W 002°05'0 0.0
2017-Feb-17 10:33N 57°09' W 002°05'0 0.0
2017-Feb-17 09:33N 57°09' W 002°05'0 0.0
2017-Feb-17 08:33N 57°09' W 002°05'0 0.0
2017-Feb-17 07:33N 57°09' W 002°05'1 0.5
2017-Feb-17 06:33N 57°09' W 002°05'1313.3
2017-Feb-17 05:33N 57°18' W 001°47'1514.7
2017-Feb-17 04:33N 57°31' W 001°35'17 0.5
2017-Feb-15 21:27N 57°48' W 001°36'1516.2
2017-Feb-15 20:33N 57°33' W 001°37'2018.8
2017-Feb-15 19:30N 57°16' W 001°53'1010.1
2017-Feb-15 18:33N 57°09' W 002°05'0 0.0
2017-Feb-15 17:33N 57°09' W 002°05'0 0.0
2017-Feb-15 16:33N 57°09' W 002°05'0 0.0
2017-Feb-15 15:33N 57°09' W 002°05'0 0.0
2017-Feb-15 14:33N 57°09' W 002°05'0 0.0
2017-Feb-15 13:33N 57°09' W 002°05'0 0.0
2017-Feb-15 12:33N 57°09' W 002°05'0 0.0
2017-Feb-15 11:33N 57°09' W 002°05'0 0.0
2017-Feb-15 10:33N 57°09' W 002°05'0 0.0
2017-Feb-15 09:33N 57°09' W 002°05'0 0.0
2017-Feb-15 08:33N 57°09' W 002°05'0 0.0
2017-Feb-15 07:33N 57°09' W 002°05'0 0.4
2017-Feb-15 06:33N 57°09' W 002°05'1312.8
2017-Feb-15 05:33N 57°18' W 001°49'1817.1
2017-Feb-15 04:31N 57°34' W 001°34'18 0.6
2017-Feb-13 21:24N 57°52' W 001°38'1720.0
2017-Feb-13 20:33N 57°35' W 001°38'1918.8
2017-Feb-13 19:32N 57°17' W 001°52'1111.4
2017-Feb-13 18:33N 57°09' W 002°05'0 0.0
2017-Feb-13 17:33N 57°09' W 002°05'0 0.0
2017-Feb-13 16:33N 57°09' W 002°05'0 0.0
2017-Feb-13 15:33N 57°09' W 002°05'0 0.0
2017-Feb-13 14:33N 57°09' W 002°05'0 0.0
2017-Feb-13 13:33N 57°09' W 002°05'0 0.0
2017-Feb-13 12:33N 57°09' W 002°05'0 0.0
2017-Feb-13 11:33N 57°09' W 002°05'0 0.0
2017-Feb-13 10:33N 57°09' W 002°05'0 0.0
2017-Feb-13 09:33N 57°09' W 002°05'0 0.0
2017-Feb-13 08:33N 57°09' W 002°05'0 0.0
2017-Feb-13 07:33N 57°09' W 002°05'0 0.0
2017-Feb-13 06:33N 57°09' W 002°05'4 4.1
2017-Feb-13 05:33N 57°11' W 001°59'1616.5
2017-Feb-13 04:33N 57°24' W 001°40'1717.3
2017-Feb-13 03:33N 57°41' W 001°34'86 3.3
2017-Feb-12 01:33N 59°01' W 002°31'1211.7
2017-Feb-12 00:33N 59°01' W 002°54'0 0.2
2017-Feb-11 22:33N 59°01' W 002°53'  
Track history (hours):
 
Tides and Currents Weather Stations Pressure Air Temp Water Temp Dewpoint Dewpoint Depression Visibility Wind Speed Wind Dir Waves Ship Positions

Hrossey

Operator: NorthLink Orkey & Shetland Ferries Ltd

Last reported at 2017-Feb-21 19:33 UTC. Time now 2017-Feb-22 04:25 UTC.
Position N 57°39' W 001°39'.

Length 125 m; draft 5.4 m.

Type: Passenger vessel. MMSI: 235448000.

Date/timePositionNaut miles runAvg speedWind from/ knotsBaromVisibWave heightAir tempDewpointWater temp
2017-Feb-21 19:33N 57°39' W 001°39'2422.0
2017-Feb-21 18:28N 57°16' W 001°53'1010.8
2017-Feb-21 17:33N 57°09' W 002°05'0 0.0
2017-Feb-21 16:33N 57°09' W 002°05'0 0.0
2017-Feb-21 15:33N 57°09' W 002°05'0 0.0
2017-Feb-21 14:33N 57°09' W 002°05'0 0.0
2017-Feb-21 13:33N 57°09' W 002°05'0 0.0
2017-Feb-21 12:33N 57°09' W 002°05'0 0.0
2017-Feb-21 11:33N 57°09' W 002°05'0 0.0
2017-Feb-21 10:33N 57°09' W 002°05'0 0.0
2017-Feb-21 09:33N 57°09' W 002°05'0 0.0
2017-Feb-21 08:33N 57°09' W 002°05'0 0.0
2017-Feb-21 07:33N 57°09' W 002°05'1 0.7
2017-Feb-21 06:33N 57°08' W 002°04'1612.4
2017-Feb-21 05:16N 57°21' W 001°45'912.8
2017-Feb-21 04:33N 57°29' W 001°37'100 3.7
2017-Feb-20 01:12N 59°05' W 002°27'812.6
2017-Feb-20 00:33N 59°00' W 002°39'1010.0
2017-Feb-19 23:33N 58°60' W 002°58'4 4.4
2017-Feb-19 22:33N 59°00' W 002°50'7822.1
2017-Feb-19 19:03N 57°50' W 001°48'1122.3
2017-Feb-19 18:33N 57°39' W 001°43'2121.1
2017-Feb-19 17:33N 57°18' W 001°50'1312.8
2017-Feb-19 16:33N 57°09' W 002°05'0 0.0
2017-Feb-19 15:33N 57°09' W 002°05'0 0.0
2017-Feb-19 14:33N 57°09' W 002°05'0 0.0
2017-Feb-19 13:33N 57°09' W 002°05'0 0.0
2017-Feb-19 12:33N 57°09' W 002°05'0 0.0
2017-Feb-19 11:33N 57°09' W 002°05'0 0.0
2017-Feb-19 10:33N 57°09' W 002°05'0 0.0
2017-Feb-19 09:33N 57°09' W 002°05'0 0.0
2017-Feb-19 08:33N 57°09' W 002°05'0 0.0
2017-Feb-19 07:33N 57°09' W 002°05'14 6.9
2017-Feb-19 05:33N 57°19' W 001°49'1414.0
2017-Feb-19 04:33N 57°32' W 001°39'14 0.4
2017-Feb-17 21:20N 57°46' W 001°38'1316.2
2017-Feb-17 20:33N 57°33' W 001°38'2118.3
2017-Feb-17 19:26N 57°14' W 001°54'8 9.5
2017-Feb-17 18:34N 57°09' W 002°05'0 0.0
2017-Feb-17 17:33N 57°09' W 002°05'0 0.0
2017-Feb-17 16:33N 57°09' W 002°05'0 0.0
2017-Feb-17 15:33N 57°09' W 002°05'0 0.0
2017-Feb-17 14:33N 57°09' W 002°05'0 0.0
2017-Feb-17 13:33N 57°09' W 002°05'0 0.0
2017-Feb-17 12:33N 57°09' W 002°05'0 0.0
2017-Feb-17 11:33N 57°09' W 002°05'0 0.0
2017-Feb-17 10:33N 57°09' W 002°05'0 0.0
2017-Feb-17 09:33N 57°09' W 002°05'0 0.0
2017-Feb-17 08:33N 57°09' W 002°05'0 0.0
2017-Feb-17 07:33N 57°09' W 002°05'1 0.5
2017-Feb-17 06:33N 57°09' W 002°05'1313.3
2017-Feb-17 05:33N 57°18' W 001°47'1514.7
2017-Feb-17 04:33N 57°31' W 001°35'17 0.5
2017-Feb-15 21:27N 57°48' W 001°36'1516.2
2017-Feb-15 20:33N 57°33' W 001°37'2018.8
2017-Feb-15 19:30N 57°16' W 001°53'1010.1
2017-Feb-15 18:33N 57°09' W 002°05'0 0.0
2017-Feb-15 17:33N 57°09' W 002°05'0 0.0
2017-Feb-15 16:33N 57°09' W 002°05'0 0.0
2017-Feb-15 15:33N 57°09' W 002°05'0 0.0
2017-Feb-15 14:33N 57°09' W 002°05'0 0.0
2017-Feb-15 13:33N 57°09' W 002°05'0 0.0
2017-Feb-15 12:33N 57°09' W 002°05'0 0.0
2017-Feb-15 11:33N 57°09' W 002°05'0 0.0
2017-Feb-15 10:33N 57°09' W 002°05'0 0.0
2017-Feb-15 09:33N 57°09' W 002°05'0 0.0
2017-Feb-15 08:33N 57°09' W 002°05'0 0.0
2017-Feb-15 07:33N 57°09' W 002°05'0 0.4
2017-Feb-15 06:33N 57°09' W 002°05'1312.8
2017-Feb-15 05:33N 57°18' W 001°49'1817.1
2017-Feb-15 04:31N 57°34' W 001°34'18 0.6
2017-Feb-13 21:24N 57°52' W 001°38'1720.0
2017-Feb-13 20:33N 57°35' W 001°38'1918.8
2017-Feb-13 19:32N 57°17' W 001°52'1111.4
2017-Feb-13 18:33N 57°09' W 002°05'0 0.0
2017-Feb-13 17:33N 57°09' W 002°05'0 0.0
2017-Feb-13 16:33N 57°09' W 002°05'0 0.0
2017-Feb-13 15:33N 57°09' W 002°05'0 0.0
2017-Feb-13 14:33N 57°09' W 002°05'0 0.0
2017-Feb-13 13:33N 57°09' W 002°05'0 0.0
2017-Feb-13 12:33N 57°09' W 002°05'0 0.0
2017-Feb-13 11:33N 57°09' W 002°05'0 0.0
2017-Feb-13 10:33N 57°09' W 002°05'0 0.0
2017-Feb-13 09:33N 57°09' W 002°05'0 0.0
2017-Feb-13 08:33N 57°09' W 002°05'0 0.0
2017-Feb-13 07:33N 57°09' W 002°05'0 0.0
2017-Feb-13 06:33N 57°09' W 002°05'4 4.1
2017-Feb-13 05:33N 57°11' W 001°59'1616.5
2017-Feb-13 04:33N 57°24' W 001°40'1717.3
2017-Feb-13 03:33N 57°41' W 001°34'86 3.3
2017-Feb-12 01:33N 59°01' W 002°31'1211.7
2017-Feb-12 00:33N 59°01' W 002°54'0 0.2
2017-Feb-11 22:33N 59°01' W 002°53'  

Dump ship's entire track history